Time;durP1;ratioP1;P1;durP2;ratioP2;P2;SDS_P1;SDS_P2;PMS_P1;PMS_P2;Temp;Humidity;BMP_temperature;BMP_pressure;BME280_temperature;BME280_humidity;BME280_pressure;Samples;Min_cycle;Max_cycle;Signal;HPM_P1;HPM_P2
2022/04/27 00:01:46;;;;;;;4.57;3.58;;;14.60;99.90;;;;;;5031805;28;20230;-78
2022/04/27 00:04:13;;;;;;;3.13;2.90;;;14.60;99.90;;;;;;5024394;28;20208;-79
2022/04/27 00:06:40;;;;;;;3.90;3.13;;;14.60;99.90;;;;;;5031834;28;20281;-79
2022/04/27 00:09:07;;;;;;;4.45;3.20;;;14.50;99.90;;;;;;5031781;28;20261;-80
2022/04/27 00:11:34;;;;;;;5.65;3.88;;;14.50;99.90;;;;;;5031859;28;20200;-79
2022/04/27 00:14:03;;;;;;;5.18;2.92;;;14.40;99.90;;;;;;5032821;28;20273;-77
2022/04/27 00:16:30;;;;;;;3.70;2.75;;;14.40;99.90;;;;;;5031953;28;20211;-77
2022/04/27 00:18:58;;;;;;;5.45;3.28;;;14.30;99.90;;;;;;5031401;28;20659;-77
2022/04/27 00:21:25;;;;;;;3.47;2.63;;;14.30;99.90;;;;;;5030948;28;20258;-78
2022/04/27 00:23:52;;;;;;;4.00;2.75;;;14.30;99.90;;;;;;5031020;28;20265;-77
2022/04/27 00:26:19;;;;;;;3.33;2.80;;;14.30;99.90;;;;;;5031022;28;20223;-76
2022/04/27 00:28:46;;;;;;;3.90;3.47;;;14.20;99.90;;;;;;5031762;28;20207;-79
2022/04/27 00:31:13;;;;;;;5.97;3.83;;;14.20;99.90;;;;;;5030770;28;20620;-79
2022/04/27 00:33:40;;;;;;;3.25;2.95;;;14.30;99.90;;;;;;5031689;28;20269;-78
2022/04/27 00:36:09;;;;;;;3.65;2.47;;;14.20;99.90;;;;;;5030810;28;20207;-77
2022/04/27 00:38:36;;;;;;;3.78;3.08;;;14.20;99.90;;;;;;5031338;28;20262;-77
2022/04/27 00:41:03;;;;;;;3.17;2.92;;;14.20;99.90;;;;;;5030405;28;20265;-78
2022/04/27 00:43:41;;;;;;;4.07;3.22;;;14.20;99.90;;;;;;5030870;28;20257;-77
2022/04/27 00:46:10;;;;;;;2.78;2.58;;;14.10;99.90;;;;;;5030807;28;20231;-76
2022/04/27 00:48:39;;;;;;;4.60;3.72;;;13.90;99.90;;;;;;5031314;28;20294;-81
2022/04/27 00:51:09;;;;;;;3.97;3.58;;;13.90;99.90;;;;;;5031198;28;20277;-79
2022/04/27 00:53:37;;;;;;;3.50;3.20;;;13.90;99.90;;;;;;5031450;28;20199;-79
2022/04/27 00:56:04;;;;;;;3.45;3.15;;;13.90;99.90;;;;;;5030901;28;20296;-80
2022/04/27 00:58:32;;;;;;;3.40;2.97;;;13.80;99.90;;;;;;5031059;28;20204;-81
2022/04/27 01:00:59;;;;;;;5.88;3.28;;;13.80;99.90;;;;;;5030566;28;20204;-78
2022/04/27 01:03:26;;;;;;;3.42;3.13;;;13.80;99.90;;;;;;5022710;28;20203;-79
2022/04/27 01:05:54;;;;;;;4.95;3.47;;;13.70;99.90;;;;;;5030765;28;20227;-79
2022/04/27 01:08:22;;;;;;;3.78;3.20;;;13.70;99.90;;;;;;5029687;28;20271;-79
2022/04/27 01:10:50;;;;;;;4.50;3.33;;;13.70;99.90;;;;;;5030535;28;20211;-80
2022/04/27 01:13:17;;;;;;;5.25;3.17;;;13.70;99.90;;;;;;5029893;28;20200;-80
2022/04/27 01:15:44;;;;;;;3.17;2.90;;;13.60;99.90;;;;;;5030598;28;20261;-77
2022/04/27 01:18:12;;;;;;;3.85;3.42;;;13.60;99.90;;;;;;5029545;28;20203;-79
2022/04/27 01:20:44;;;;;;;5.78;3.67;;;13.60;99.90;;;;;;5023693;28;20270;-77
2022/04/27 01:23:12;;;;;;;4.32;3.88;;;13.50;99.90;;;;;;5029818;28;20211;-77
2022/04/27 01:25:49;;;;;;;3.80;3.50;;;13.60;99.90;;;;;;5030289;28;20581;-79
2022/04/27 01:28:18;;;;;;;8.88;3.42;;;13.60;99.90;;;;;;5029347;28;20259;-77
2022/04/27 01:30:45;;;;;;;6.60;3.35;;;13.60;99.90;;;;;;5030465;28;20686;-79
2022/04/27 01:33:12;;;;;;;4.13;3.35;;;13.50;99.90;;;;;;5029857;28;20204;-78
2022/04/27 01:35:41;;;;;;;4.70;3.67;;;13.40;99.90;;;;;;5030658;28;20219;-78
2022/04/27 01:38:08;;;;;;;5.88;4.35;;;13.40;99.90;;;;;;5029932;28;20290;-78
2022/04/27 01:40:36;;;;;;;5.38;3.58;;;13.40;99.90;;;;;;5022246;28;20213;-82
2022/04/27 01:43:04;;;;;;;4.10;3.65;;;13.50;99.90;;;;;;5031150;28;20211;-82
2022/04/27 01:45:31;;;;;;;6.75;3.97;;;13.50;99.90;;;;;;5030366;28;20258;-81
2022/04/27 01:47:58;;;;;;;6.25;4.60;;;13.50;99.90;;;;;;5030424;28;20258;-82
2022/04/27 01:50:25;;;;;;;6.93;3.60;;;13.50;99.90;;;;;;5029665;28;20671;-84
2022/04/27 01:55:39;;;;;;;3.92;3.60;;;13.30;99.90;;;;;;5030250;28;20225;-80
2022/04/27 01:58:06;;;;;;;4.90;2.97;;;13.30;99.90;;;;;;5030440;28;20207;-79
2022/04/27 02:00:34;;;;;;;3.45;3.15;;;13.20;99.90;;;;;;5030202;28;20207;-78
2022/04/27 02:03:02;;;;;;;4.72;3.80;;;13.30;99.90;;;;;;5030478;28;20214;-80
2022/04/27 02:05:29;;;;;;;3.83;3.42;;;13.30;99.90;;;;;;5029466;28;20714;-79
2022/04/27 02:07:57;;;;;;;5.07;3.67;;;13.20;99.90;;;;;;5029857;28;20530;-81
2022/04/27 02:10:24;;;;;;;4.95;3.78;;;13.20;99.90;;;;;;5029534;28;20214;-80
2022/04/27 02:12:51;;;;;;;4.75;4.00;;;13.10;99.90;;;;;;5030090;28;20199;-81
2022/04/27 02:15:19;;;;;;;4.97;3.20;;;13.00;99.90;;;;;;5029528;28;20667;-81
2022/04/27 02:17:46;;;;;;;4.50;2.92;;;12.90;99.90;;;;;;5030500;28;20635;-82
2022/04/27 02:20:13;;;;;;;3.50;3.20;;;12.80;99.90;;;;;;5029757;28;20204;-80
2022/04/27 02:22:40;;;;;;;3.33;3.03;;;13.00;99.90;;;;;;5029724;28;20316;-82
2022/04/27 02:25:09;;;;;;;5.60;3.90;;;13.00;99.90;;;;;;5030194;28;20646;-81
2022/04/27 02:27:37;;;;;;;5.32;4.30;;;13.10;99.90;;;;;;5029837;28;20204;-78
2022/04/27 02:30:05;;;;;;;4.00;3.70;;;13.00;99.90;;;;;;5030301;28;20203;-78
2022/04/27 02:32:32;;;;;;;5.15;4.18;;;13.10;99.90;;;;;;5029657;28;20207;-78
2022/04/27 02:34:59;;;;;;;5.60;3.45;;;12.90;99.90;;;;;;5029675;28;20204;-80
2022/04/27 02:37:26;;;;;;;4.97;3.88;;;12.90;99.90;;;;;;5028735;28;20310;-80
2022/04/27 02:39:53;;;;;;;4.15;3.47;;;12.80;99.90;;;;;;5029961;28;20214;-81
2022/04/27 02:42:22;;;;;;;4.60;4.20;;;12.80;99.90;;;;;;5030066;28;20200;-82
2022/04/27 02:44:49;;;;;;;4.53;3.10;;;12.70;99.90;;;;;;5029836;28;20199;-81
2022/04/27 02:47:16;;;;;;;4.10;3.72;;;12.80;99.90;;;;;;5029516;28;20232;-84
2022/04/27 02:52:27;;;;;;;4.22;3.60;;;12.90;99.90;;;;;;5029605;28;20567;-81
2022/04/27 02:54:55;;;;;;;3.92;3.20;;;12.90;99.90;;;;;;5030343;28;20200;-79
2022/04/27 02:57:23;;;;;;;7.22;3.92;;;12.80;99.90;;;;;;5029919;28;20291;-83
2022/04/27 02:59:51;;;;;;;4.30;3.65;;;12.60;99.90;;;;;;5029720;28;20208;-85
2022/04/27 03:02:18;;;;;;;3.45;3.15;;;12.60;99.90;;;;;;5029442;28;20246;-81
2022/04/27 03:04:45;;;;;;;6.03;3.80;;;12.60;99.90;;;;;;5032891;28;20721;-84
2022/04/27 03:07:12;;;;;;;5.45;3.90;;;12.60;99.90;;;;;;5033054;28;20334;-82
2022/04/27 03:09:39;;;;;;;8.73;5.05;;;12.70;99.90;;;;;;5033449;28;20212;-83
2022/04/27 03:12:07;;;;;;;3.33;3.05;;;12.60;99.90;;;;;;5033543;28;20199;-79
2022/04/27 03:14:35;;;;;;;7.05;4.95;;;12.60;99.90;;;;;;5032985;28;20203;-78
2022/04/27 03:17:02;;;;;;;4.53;4.22;;;12.60;99.90;;;;;;5033010;28;20206;-78
2022/04/27 03:19:30;;;;;;;5.38;3.80;;;12.60;99.90;;;;;;5032668;28;20579;-78
2022/04/27 03:21:57;;;;;;;3.22;2.92;;;12.60;99.90;;;;;;5032483;28;20204;-78
2022/04/27 03:24:24;;;;;;;7.05;3.30;;;12.50;99.90;;;;;;5032327;28;20287;-79
2022/04/27 03:26:52;;;;;;;5.15;3.90;;;12.60;99.90;;;;;;5032033;28;20227;-78
2022/04/27 03:29:19;;;;;;;6.68;3.92;;;12.50;99.90;;;;;;5032050;28;20200;-81
2022/04/27 03:31:48;;;;;;;6.23;3.80;;;12.50;99.90;;;;;;5032586;28;20212;-79
2022/04/27 03:34:15;;;;;;;4.10;3.67;;;12.40;99.90;;;;;;5032671;28;20290;-80
2022/04/27 03:36:42;;;;;;;4.35;3.67;;;12.50;99.90;;;;;;5032047;28;20291;-77
2022/04/27 03:39:10;;;;;;;4.18;3.63;;;12.40;99.90;;;;;;5032052;28;20199;-80
2022/04/27 03:41:37;;;;;;;5.80;4.57;;;12.40;99.90;;;;;;5032441;28;20635;-83
2022/04/27 03:44:05;;;;;;;5.32;4.45;;;12.40;99.90;;;;;;5032432;28;20290;-81
2022/04/27 03:46:32;;;;;;;5.50;3.80;;;12.50;99.90;;;;;;5032209;28;20282;-79
2022/04/27 03:49:00;;;;;;;6.78;4.55;;;12.50;99.90;;;;;;5032335;28;20649;-80
2022/04/27 03:51:28;;;;;;;3.80;3.50;;;12.30;99.90;;;;;;5031809;28;20697;-79
2022/04/27 03:53:55;;;;;;;3.88;3.55;;;12.20;99.90;;;;;;5031820;28;20211;-79
2022/04/27 03:56:22;;;;;;;14.00;5.00;;;12.30;99.90;;;;;;5031694;28;20207;-80
2022/04/27 03:58:49;;;;;;;4.60;3.97;;;12.20;99.90;;;;;;5032040;28;20203;-78
2022/04/27 04:01:17;;;;;;;4.90;4.50;;;12.10;99.90;;;;;;5031913;28;20646;-81
2022/04/27 04:03:44;;;;;;;6.78;3.63;;;12.00;99.90;;;;;;5031648;28;20282;-78
2022/04/27 04:06:12;;;;;;;6.47;4.37;;;12.00;99.90;;;;;;5031563;28;20346;-83
2022/04/27 04:08:40;;;;;;;4.78;3.80;;;12.10;99.90;;;;;;5032280;28;20217;-79
2022/04/27 04:11:07;;;;;;;5.90;3.75;;;12.10;99.90;;;;;;5031573;28;20294;-77
2022/04/27 04:13:34;;;;;;;6.28;4.43;;;12.00;99.90;;;;;;5032270;28;20259;-80
2022/04/27 04:16:01;;;;;;;5.07;4.25;;;11.90;99.90;;;;;;5030653;28;20294;-81
2022/04/27 04:18:28;;;;;;;5.68;4.28;;;11.90;99.90;;;;;;5024888;28;20212;-82
2022/04/27 04:20:55;;;;;;;7.57;5.25;;;11.90;99.90;;;;;;5031242;28;20291;-82
2022/04/27 04:23:24;;;;;;;4.63;4.23;;;11.80;99.90;;;;;;5027301;28;20283;-83
2022/04/27 04:28:36;;;;;;;7.45;4.30;;;11.90;99.90;;;;;;5032460;28;20285;-82
2022/04/27 04:31:05;;;;;;;6.88;4.15;;;12.00;99.90;;;;;;5031333;28;20208;-81
2022/04/27 04:33:32;;;;;;;5.47;4.37;;;12.00;99.90;;;;;;5031447;28;20286;-81
2022/04/27 04:36:00;;;;;;;5.33;4.40;;;12.10;99.90;;;;;;5031463;28;20214;-82
2022/04/27 04:38:28;;;;;;;5.23;3.90;;;12.10;99.90;;;;;;5029636;28;20294;-82
2022/04/27 04:40:56;;;;;;;5.20;4.33;;;12.10;99.90;;;;;;5031597;28;20684;-81
2022/04/27 04:43:23;;;;;;;7.73;5.50;;;12.10;99.90;;;;;;5030146;28;20231;-81
2022/04/27 04:45:51;;;;;;;8.00;4.27;;;12.10;99.90;;;;;;5030836;28;20296;-82
2022/04/27 04:48:18;;;;;;;4.80;4.27;;;12.00;99.90;;;;;;5030673;28;20325;-82
2022/04/27 04:50:46;;;;;;;6.30;4.17;;;12.10;99.90;;;;;;5030531;28;20250;-82
2022/04/27 04:53:13;;;;;;;4.65;3.67;;;12.20;99.90;;;;;;5031068;28;20295;-80
2022/04/27 04:55:42;;;;;;;6.30;4.20;;;12.30;99.90;;;;;;5030694;28;20692;-82
2022/04/27 04:58:10;;;;;;;6.13;3.47;;;12.30;99.90;;;;;;5030906;28;20286;-83
2022/04/27 05:00:38;;;;;;;7.07;4.30;;;12.40;99.90;;;;;;5031066;28;20207;-84
2022/04/27 05:03:05;;;;;;;5.40;4.88;;;12.40;99.90;;;;;;5031699;28;20219;-81
2022/04/27 05:05:34;;;;;;;4.60;3.55;;;12.50;99.90;;;;;;5023385;28;20199;-80
2022/04/27 05:08:02;;;;;;;7.97;4.80;;;12.40;99.90;;;;;;5030792;28;20259;-82
2022/04/27 05:10:29;;;;;;;8.07;3.83;;;12.40;99.90;;;;;;5030343;28;20195;-84
2022/04/27 05:12:57;;;;;;;7.53;3.90;;;12.40;99.90;;;;;;5031252;28;20286;-82
2022/04/27 05:15:25;;;;;;;7.03;4.50;;;12.40;99.90;;;;;;5029757;28;20212;-82
2022/04/27 05:17:52;;;;;;;6.23;3.30;;;12.50;99.90;;;;;;5029355;28;20230;-83
2022/04/27 05:20:19;;;;;;;7.73;3.90;;;12.60;99.90;;;;;;5029254;28;20734;-77
2022/04/27 05:22:46;;;;;;;4.65;3.70;;;12.70;99.90;;;;;;5030305;28;20212;-77
2022/04/27 05:25:14;;;;;;;4.60;3.67;;;12.60;99.90;;;;;;5029823;28;20229;-77
2022/04/27 05:27:41;;;;;;;4.18;3.28;;;12.70;99.90;;;;;;5030067;28;20285;-76
2022/04/27 05:32:55;;;;;;;5.67;3.70;;;12.80;99.90;;;;;;5024683;28;20210;-77
2022/04/27 05:35:23;;;;;;;5.20;3.90;;;12.90;99.90;;;;;;5029821;28;20581;-79
2022/04/27 05:37:50;;;;;;;5.38;4.53;;;12.90;99.90;;;;;;5027683;28;20214;-75
2022/04/27 05:40:17;;;;;;;4.47;4.07;;;12.80;99.90;;;;;;5029784;28;20218;-75
2022/04/27 05:42:45;;;;;;;3.90;3.50;;;12.90;99.90;;;;;;5029104;28;20294;-76
2022/04/27 05:45:14;;;;;;;5.67;4.13;;;13.00;99.90;;;;;;5029221;28;20734;-78
2022/04/27 05:47:45;;;;;;;4.82;4.05;;;13.00;99.90;;;;;;5029975;28;20297;-78
2022/04/27 05:50:12;;;;;;;5.47;4.15;;;13.10;99.90;;;;;;5030148;28;20208;-80
2022/04/27 05:52:52;;;;;;;4.20;3.90;;;13.30;99.90;;;;;;5028114;28;20249;-78
2022/04/27 05:55:19;;;;;;;6.13;3.60;;;13.40;99.90;;;;;;5029377;28;20659;-79
2022/04/27 05:57:47;;;;;;;4.00;3.67;;;13.50;99.90;;;;;;5021901;28;20705;-79
2022/04/27 06:00:16;;;;;;;3.47;3.17;;;13.50;99.90;;;;;;5030173;28;20742;-81
2022/04/27 06:02:44;;;;;;;5.00;4.50;;;13.40;99.90;;;;;;5029454;28;20215;-76
2022/04/27 06:05:12;;;;;;;4.65;3.42;;;13.50;99.90;;;;;;5029991;28;20322;-79
2022/04/27 06:07:40;;;;;;;5.47;3.47;;;13.60;99.90;;;;;;5027978;28;20238;-79
2022/04/27 06:10:09;;;;;;;4.00;3.25;;;13.70;99.90;;;;;;5030199;28;20209;-80
2022/04/27 06:12:43;;;;;;;5.43;4.05;;;13.70;99.90;;;;;;5027395;28;20581;-81
2022/04/27 06:15:12;;;;;;;3.92;3.50;;;13.70;99.90;;;;;;5030072;28;20213;-74
2022/04/27 06:17:41;;;;;;;6.15;3.40;;;13.80;99.90;;;;;;5029925;28;20207;-76
2022/04/27 06:20:10;;;;;;;6.38;4.63;;;13.90;99.90;;;;;;5030253;28;20693;-75
2022/04/27 06:22:38;;;;;;;5.38;4.25;;;13.80;99.90;;;;;;5030251;28;20612;-78
2022/04/27 06:25:05;;;;;;;3.45;3.08;;;13.90;99.90;;;;;;5030577;28;20211;-76
2022/04/27 06:27:33;;;;;;;5.35;3.65;;;14.00;99.90;;;;;;5027839;28;20314;-77
2022/04/27 06:30:00;;;;;;;6.40;5.00;;;14.00;99.90;;;;;;5029612;28;20362;-76
2022/04/27 06:32:30;;;;;;;5.40;4.18;;;14.10;99.90;;;;;;5029201;28;20262;-76
2022/04/27 06:35:00;;;;;;;4.65;4.18;;;14.20;99.90;;;;;;5029761;28;20203;-76
2022/04/27 06:37:27;;;;;;;5.43;4.05;;;14.30;99.90;;;;;;5030025;28;20295;-76
2022/04/27 06:39:54;;;;;;;4.00;3.70;;;14.40;99.90;;;;;;5033280;28;20287;-75
2022/04/27 06:42:22;;;;;;;4.75;4.13;;;14.40;99.90;;;;;;5033367;28;20207;-77
2022/04/27 06:44:49;;;;;;;4.10;3.70;;;14.50;99.90;;;;;;5033126;28;20696;-77
2022/04/27 06:47:17;;;;;;;3.78;3.47;;;14.60;99.90;;;;;;5032360;28;20318;-77
2022/04/27 06:49:44;;;;;;;5.53;3.78;;;14.70;99.90;;;;;;5031855;28;20258;-73
2022/04/27 06:52:12;;;;;;;5.53;3.50;;;14.90;99.90;;;;;;5033399;28;20214;-76
2022/04/27 06:54:40;;;;;;;4.32;3.92;;;14.90;99.90;;;;;;5032675;28;20203;-75
2022/04/27 06:57:07;;;;;;;4.72;3.40;;;15.00;99.90;;;;;;5033251;28;20294;-74
2022/04/27 06:59:34;;;;;;;4.25;3.78;;;14.90;99.90;;;;;;5031753;28;20231;-74
2022/04/27 07:02:01;;;;;;;5.88;4.55;;;15.10;99.90;;;;;;5033246;28;20210;-74
2022/04/27 07:04:31;;;;;;;6.13;5.25;;;15.20;99.90;;;;;;5032771;28;20205;-75
2022/04/27 07:06:58;;;;;;;7.00;4.50;;;15.40;99.90;;;;;;5032658;28;20219;-77
2022/04/27 07:09:27;;;;;;;4.47;3.92;;;15.50;99.90;;;;;;5030485;28;20207;-74
2022/04/27 07:11:55;;;;;;;4.70;4.05;;;15.50;99.90;;;;;;5031824;28;20210;-74
2022/04/27 07:14:23;;;;;;;4.60;4.07;;;15.70;99.90;;;;;;5030857;28;20200;-75
2022/04/27 07:16:50;;;;;;;7.10;3.53;;;15.70;99.90;;;;;;5031846;28;20242;-74
2022/04/27 07:19:17;;;;;;;3.70;3.05;;;15.90;99.90;;;;;;5032749;28;20287;-74
2022/04/27 07:21:45;;;;;;;4.70;4.30;;;16.10;99.90;;;;;;5032506;28;20290;-73
2022/04/27 07:24:12;;;;;;;4.32;3.78;;;16.30;99.90;;;;;;5031759;28;20218;-78
2022/04/27 07:26:41;;;;;;;3.60;3.30;;;16.30;99.90;;;;;;5032187;28;20199;-73
2022/04/27 07:29:09;;;;;;;3.55;3.00;;;16.30;99.90;;;;;;5032307;28;20271;-74
2022/04/27 07:31:36;;;;;;;3.45;3.15;;;16.50;99.90;;;;;;5032770;28;20207;-75
2022/04/27 07:34:03;;;;;;;5.95;3.53;;;16.70;99.90;;;;;;5032129;28;20285;-74
2022/04/27 07:36:30;;;;;;;6.18;3.75;;;16.80;99.90;;;;;;5032251;28;20735;-74
2022/04/27 07:38:58;;;;;;;4.25;3.33;;;16.90;99.90;;;;;;5032140;28;20212;-76
2022/04/27 07:41:25;;;;;;;3.65;3.35;;;17.00;99.90;;;;;;5027291;28;20289;-74
2022/04/27 07:43:54;;;;;;;4.05;3.65;;;17.40;99.90;;;;;;5026587;28;20287;-75
2022/04/27 07:46:21;;;;;;;4.45;3.20;;;18.00;99.90;;;;;;5031539;28;20207;-75
2022/04/27 07:48:49;;;;;;;3.28;2.92;;;18.00;99.90;;;;;;5023625;28;20621;-75
2022/04/27 07:51:16;;;;;;;5.03;3.30;;;17.50;99.90;;;;;;5031998;28;20250;-77
2022/04/27 07:53:43;;;;;;;3.70;3.35;;;17.50;99.90;;;;;;5031800;28;20204;-75
2022/04/27 07:56:10;;;;;;;3.85;3.30;;;17.40;99.90;;;;;;5032526;28;20208;-75
2022/04/27 07:58:38;;;;;;;2.88;2.47;;;17.50;99.90;;;;;;5032083;28;20233;-75
2022/04/27 08:01:06;;;;;;;3.40;3.10;;;17.70;99.90;;;;;;5031938;28;20279;-76
2022/04/27 08:03:34;;;;;;;3.40;3.10;;;17.90;99.90;;;;;;5031448;28;20678;-78
2022/04/27 08:06:02;;;;;;;4.35;3.10;;;17.80;99.90;;;;;;5031766;28;20648;-75
2022/04/27 08:08:30;;;;;;;10.27;3.15;;;17.70;99.90;;;;;;5030460;28;20266;-78
2022/04/27 08:10:58;;;;;;;3.85;2.90;;;17.60;99.90;;;;;;5029256;28;20208;-77
2022/04/27 08:13:25;;;;;;;3.80;3.50;;;17.90;99.90;;;;;;5027272;28;20204;-76
2022/04/27 08:15:52;;;;;;;3.67;2.65;;;18.10;99.90;;;;;;5025738;28;20212;-76
2022/04/27 08:18:21;;;;;;;3.45;3.10;;;18.10;99.90;;;;;;5031186;28;20210;-74
2022/04/27 08:23:34;;;;;;;3.38;3.08;;;18.00;99.90;;;;;;5023817;28;20207;-73
2022/04/27 08:26:03;;;;;;;4.10;3.33;;;18.20;99.90;;;;;;5031053;28;21899;-73
2022/04/27 08:28:31;;;;;;;4.97;3.15;;;18.50;99.90;;;;;;5031007;28;20237;-74
2022/04/27 08:30:59;;;;;;;3.55;3.25;;;18.50;99.90;;;;;;5031172;28;20286;-73
2022/04/27 08:33:27;;;;;;;3.47;2.65;;;18.50;99.90;;;;;;5031102;28;20242;-74
2022/04/27 08:35:57;;;;;;;3.47;3.03;;;18.50;99.90;;;;;;5030902;28;20294;-71
2022/04/27 08:38:25;;;;;;;3.50;3.10;;;18.40;99.90;;;;;;5031339;28;20230;-73
2022/04/27 08:40:52;;;;;;;3.42;2.67;;;18.40;99.90;;;;;;5031344;28;20239;-74
2022/04/27 08:43:21;;;;;;;3.42;3.13;;;18.70;99.90;;;;;;5030195;28;20204;-73
2022/04/27 08:45:48;;;;;;;4.30;3.15;;;18.80;99.90;;;;;;5030858;28;20209;-74
2022/04/27 08:48:17;;;;;;;2.88;2.65;;;18.70;99.90;;;;;;5030657;28;20223;-72
2022/04/27 08:50:46;;;;;;;3.38;3.17;;;19.00;99.90;;;;;;5031291;28;20211;-72
2022/04/27 08:53:14;;;;;;;5.07;3.22;;;19.00;99.90;;;;;;5030609;28;20203;-73
2022/04/27 08:55:42;;;;;;;4.20;3.08;;;19.10;99.90;;;;;;5031075;28;20211;-72
2022/04/27 08:58:12;;;;;;;3.38;2.58;;;19.00;99.90;;;;;;5031286;28;20203;-73
2022/04/27 09:00:40;;;;;;;3.78;3.47;;;18.70;99.90;;;;;;5021176;28;20217;-73
2022/04/27 09:03:27;;;;;;;3.75;2.63;;;18.60;99.90;;;;;;5024927;28;20207;-73
2022/04/27 09:05:58;;;;;;;5.32;3.05;;;18.80;99.90;;;;;;5030870;28;20206;-73
2022/04/27 09:08:26;;;;;;;9.02;4.18;;;18.80;99.90;;;;;;5027746;28;20714;-72
2022/04/27 09:11:13;;;;;;;3.58;3.28;;;18.90;99.90;;;;;;5030251;28;20290;-72
2022/04/27 09:13:41;;;;;;;3.50;2.40;;;18.90;99.90;;;;;;5030242;28;20290;-73
2022/04/27 09:16:08;;;;;;;3.95;3.53;;;19.10;99.90;;;;;;5030515;28;20269;-74
2022/04/27 09:21:56;;;;;;;5.80;2.88;;;19.60;99.90;;;;;;5026359;28;20676;-72
2022/04/27 09:24:24;;;;;;;3.78;3.05;;;20.10;99.90;;;;;;5025018;28;20226;-73
2022/04/27 09:27:00;;;;;;;4.18;2.83;;;20.30;99.90;;;;;;5030254;28;20679;-73
2022/04/27 09:29:28;;;;;;;3.00;2.70;;;20.60;99.90;;;;;;5030152;28;20227;-73
2022/04/27 09:31:56;;;;;;;3.58;2.70;;;20.60;99.90;;;;;;5030101;28;20203;-75
2022/04/27 09:34:31;;;;;;;3.70;3.15;;;20.20;99.90;;;;;;5029666;28;20202;-77
2022/04/27 09:37:12;;;;;;;5.85;3.13;;;20.00;99.90;;;;;;5029920;28;20211;-77
2022/04/27 09:39:39;;;;;;;3.15;2.95;;;20.50;99.90;;;;;;5030344;28;20242;-75
2022/04/27 09:42:09;;;;;;;5.80;3.00;;;20.40;99.90;;;;;;5030065;28;20211;-77
2022/04/27 09:44:38;;;;;;;3.58;3.25;;;20.20;99.90;;;;;;5030068;28;20538;-75
2022/04/27 09:47:06;;;;;;;4.45;2.60;;;21.30;99.90;;;;;;5029923;28;20692;-75
2022/04/27 09:49:36;;;;;;;3.42;3.13;;;21.70;99.90;;;;;;5022397;28;20655;-75
2022/04/27 09:52:07;;;;;;;6.63;3.35;;;21.90;99.90;;;;;;5030605;28;20206;-76
2022/04/27 09:54:36;;;;;;;3.72;2.67;;;21.80;99.90;;;;;;5021736;28;20286;-75
2022/04/27 09:57:05;;;;;;;3.53;2.70;;;22.00;99.90;;;;;;5030403;28;20215;-77
2022/04/27 09:59:35;;;;;;;3.58;3.00;;;21.80;99.90;;;;;;5029536;28;20578;-73
2022/04/27 10:02:06;;;;;;;2.85;2.55;;;21.80;99.90;;;;;;5030136;28;20239;-76
2022/04/27 10:04:34;;;;;;;4.68;3.15;;;21.30;99.90;;;;;;5029482;28;20290;-78
2022/04/27 10:07:04;;;;;;;4.53;3.05;;;22.20;99.90;;;;;;5029928;28;20638;-73
2022/04/27 10:09:32;;;;;;;3.28;2.95;;;21.40;99.90;;;;;;5029108;28;20285;-76
2022/04/27 10:12:02;;;;;;;2.50;2.15;;;21.30;99.90;;;;;;5031311;28;20581;-76
2022/04/27 10:14:29;;;;;;;3.78;3.00;;;20.70;99.90;;;;;;5033401;28;20203;-75
2022/04/27 10:16:57;;;;;;;7.32;4.00;;;20.60;99.90;;;;;;5033731;28;20206;-77
2022/04/27 10:19:25;;;;;;;3.75;2.67;;;20.40;99.90;;;;;;5033828;28;20207;-78
2022/04/27 10:22:01;;;;;;;3.70;3.05;;;20.30;99.90;;;;;;5030650;28;20218;-76
2022/04/27 10:24:51;;;;;;;3.03;2.45;;;20.30;99.90;;;;;;5033991;28;20245;-80
2022/04/27 10:27:20;;;;;;;3.00;2.80;;;20.40;99.90;;;;;;5027289;28;20202;-81
2022/04/27 10:30:01;;;;;;;3.05;2.83;;;20.20;99.90;;;;;;5033108;28;20357;-75
2022/04/27 10:32:42;;;;;;;2.80;2.58;;;20.30;99.90;;;;;;5033253;28;20291;-76
2022/04/27 10:35:18;;;;;;;4.50;3.05;;;20.90;99.90;;;;;;5033610;28;20208;-82
2022/04/27 10:37:47;;;;;;;3.67;2.47;;;20.50;99.90;;;;;;5032831;28;20215;-75
2022/04/27 10:40:30;;;;;;;4.00;2.80;;;20.30;99.90;;;;;;5033194;28;20211;-75
2022/04/27 10:43:03;;;;;;;7.43;2.90;;;20.40;99.90;;;;;;5033538;28;20204;-76
2022/04/27 10:45:30;;;;;;;2.53;2.33;;;20.60;99.90;;;;;;5033264;28;20227;-77
2022/04/27 10:47:58;;;;;;;2.55;2.35;;;20.50;99.90;;;;;;5033191;28;20204;-76
2022/04/27 10:50:29;;;;;;;2.95;2.65;;;20.60;99.90;;;;;;5032852;28;20210;-76
2022/04/27 10:52:58;;;;;;;5.43;2.80;;;21.10;99.90;;;;;;5032852;28;20581;-75
2022/04/27 10:55:57;;;;;;;3.28;2.97;;;21.50;99.90;;;;;;5032502;28;20208;-76
2022/04/27 10:58:42;;;;;;;2.38;2.20;;;20.90;99.90;;;;;;4971687;28;20301;-73
2022/04/27 11:01:28;;;;;;;3.97;2.47;;;21.00;99.90;;;;;;5027058;28;20294;-73
2022/04/27 11:04:11;;;;;;;2.92;2.67;;;21.00;99.90;;;;;;5030825;28;20204;-73
2022/04/27 11:07:18;;;;;;;2.83;2.60;;;21.00;99.90;;;;;;5032811;28;20215;-73
2022/04/27 11:10:10;;;;;;;4.97;2.55;;;21.30;99.90;;;;;;5032731;28;20278;-74
2022/04/27 11:12:40;;;;;;;4.78;2.17;;;21.70;99.90;;;;;;5032618;28;20246;-77
2022/04/27 11:15:10;;;;;;;3.13;2.90;;;21.30;99.90;;;;;;5032827;28;20693;-75
2022/04/27 11:17:38;;;;;;;3.22;3.00;;;20.70;99.90;;;;;;5032242;28;20215;-74
2022/04/27 11:20:07;;;;;;;3.38;2.90;;;20.90;99.90;;;;;;5032522;28;20208;-75
2022/04/27 11:22:38;;;;;;;2.90;2.60;;;20.80;99.90;;;;;;5028908;28;20246;-76
2022/04/27 11:25:08;;;;;;;3.38;2.70;;;20.60;99.90;;;;;;5031463;28;20240;-75
2022/04/27 11:27:36;;;;;;;2.83;2.33;;;20.70;99.90;;;;;;5032234;28;20202;-75
2022/04/27 11:30:08;;;;;;;4.60;3.10;;;20.60;99.90;;;;;;5032426;28;20676;-74
2022/04/27 11:32:38;;;;;;;5.65;4.07;;;20.20;99.90;;;;;;5032205;28;20200;-74
2022/04/27 11:35:06;;;;;;;9.05;5.68;;;20.20;99.90;;;;;;5032871;28;20199;-75
2022/04/27 11:37:36;;;;;;;4.88;3.70;;;20.20;99.90;;;;;;5031981;28;20286;-74
2022/04/27 11:40:13;;;;;;;4.10;2.65;;;20.00;99.90;;;;;;5030959;28;20244;-74
2022/04/27 11:42:43;;;;;;;2.78;2.53;;;20.20;99.90;;;;;;5032275;28;20588;-73
2022/04/27 11:45:14;;;;;;;2.58;2.20;;;20.40;99.90;;;;;;5029996;28;20238;-74
2022/04/27 11:47:41;;;;;;;3.45;3.15;;;20.60;99.90;;;;;;5032503;28;20215;-75
2022/04/27 11:50:09;;;;;;;2.72;2.50;;;20.90;99.90;;;;;;5032349;28;20237;-73
2022/04/27 11:52:37;;;;;;;4.55;2.42;;;21.20;99.90;;;;;;5032006;28;20210;-74
2022/04/27 11:55:11;;;;;;;3.17;2.20;;;21.30;99.90;;;;;;5032047;28;20635;-75
2022/04/27 11:57:39;;;;;;;5.85;2.67;;;21.30;99.90;;;;;;5031962;28;20208;-74
2022/04/27 12:00:07;;;;;;;2.50;2.30;;;21.20;99.90;;;;;;5031687;28;20277;-75
2022/04/27 12:02:36;;;;;;;3.42;2.08;;;21.50;99.90;;;;;;5030594;28;20203;-73
2022/04/27 12:05:06;;;;;;;2.30;2.20;;;21.80;99.90;;;;;;5029369;28;20214;-76
2022/04/27 12:07:37;;;;;;;2.63;2.42;;;21.50;99.90;;;;;;5031632;28;20222;-77
2022/04/27 12:10:06;;;;;;;2.63;2.38;;;21.60;99.90;;;;;;5031177;28;20741;-78
2022/04/27 12:12:34;;;;;;;4.80;2.50;;;21.40;99.90;;;;;;5030818;28;20208;-76
2022/04/27 12:15:07;;;;;;;5.72;3.00;;;21.30;99.90;;;;;;5031502;28;20238;-77
2022/04/27 12:17:52;;;;;;;3.38;2.25;;;21.80;99.90;;;;;;5031522;28;20207;-76
2022/04/27 12:20:29;;;;;;;2.70;2.50;;;21.60;99.90;;;;;;5031290;28;20214;-77
2022/04/27 12:22:58;;;;;;;3.58;2.53;;;21.60;99.90;;;;;;5031864;28;20578;-78
2022/04/27 12:25:34;;;;;;;4.60;2.90;;;22.00;99.90;;;;;;5031285;28;20208;-77
2022/04/27 12:28:03;;;;;;;2.78;1.98;;;21.80;99.90;;;;;;5031672;28;20212;-74
2022/04/27 12:30:31;;;;;;;3.65;2.30;;;21.60;99.90;;;;;;5023364;28;20231;-78
2022/04/27 12:33:00;;;;;;;2.22;2.05;;;22.00;99.90;;;;;;5031495;28;20203;-78
2022/04/27 12:38:19;;;;;;;2.50;2.30;;;21.90;99.90;;;;;;5030322;28;20214;-76
2022/04/27 12:40:47;;;;;;;4.20;2.90;;;22.10;99.90;;;;;;5031393;28;20211;-79
2022/04/27 12:43:15;;;;;;;3.40;3.10;;;21.90;99.90;;;;;;5025585;28;20256;-79
2022/04/27 12:46:06;;;;;;;2.80;2.40;;;22.00;99.90;;;;;;5031592;28;20234;-80
2022/04/27 12:48:36;;;;;;;3.00;2.13;;;21.80;99.90;;;;;;5026649;28;20628;-78
2022/04/27 12:51:05;;;;;;;2.95;2.65;;;22.30;99.90;;;;;;5031110;28;20207;-78
2022/04/27 12:53:32;;;;;;;4.07;2.60;;;22.40;99.90;;;;;;5030405;28;20746;-78
2022/04/27 12:56:09;;;;;;;2.60;2.17;;;22.50;99.90;;;;;;5031032;28;20204;-76
2022/04/27 12:58:37;;;;;;;2.65;2.28;;;22.60;99.90;;;;;;5030029;28;20213;-79
2022/04/27 13:01:05;;;;;;;2.60;2.38;;;22.70;99.90;;;;;;5026662;28;20682;-77
2022/04/27 13:03:33;;;;;;;3.10;2.17;;;22.40;99.90;;;;;;5027635;28;20217;-78
2022/04/27 13:06:02;;;;;;;3.00;2.35;;;22.10;99.90;;;;;;5026459;28;20208;-78
2022/04/27 13:08:29;;;;;;;2.97;2.70;;;22.00;99.90;;;;;;5026613;28;20221;-80
2022/04/27 13:13:42;;;;;;;5.05;2.88;;;21.90;99.90;;;;;;5025642;28;20591;-75
2022/04/27 13:16:09;;;;;;;2.10;1.90;;;21.80;99.90;;;;;;5030932;28;20234;-76
2022/04/27 13:18:37;;;;;;;3.47;2.40;;;21.80;99.90;;;;;;5028235;28;20207;-74
2022/04/27 13:21:05;;;;;;;5.18;3.60;;;21.70;99.90;;;;;;5028333;28;20591;-76